Time;durP1;ratioP1;P1;durP2;ratioP2;P2;SDS_P1;SDS_P2;PMS_P1;PMS_P2;Temp;Humidity;BMP_temperature;BMP_pressure;BME280_temperature;BME280_humidity;BME280_pressure;Samples;Min_cycle;Max_cycle;Signal;HPM_P1;HPM_P2
2021/01/28 00:02:20;;;;;;;1.60;1.27;;;8.60;80.20;;;;;;5091514;28;20488;-37
2021/01/28 00:04:46;;;;;;;1.60;1.30;;;8.60;80.20;;;;;;5092151;28;20036;-37
2021/01/28 00:07:12;;;;;;;1.45;1.25;;;8.60;80.20;;;;;;5091201;28;20080;-38
2021/01/28 00:09:38;;;;;;;1.50;1.40;;;8.60;80.20;;;;;;5091999;28;20052;-37
2021/01/28 00:12:04;;;;;;;2.22;1.33;;;8.60;80.20;;;;;;5091485;28;20082;-37
2021/01/28 00:14:30;;;;;;;1.40;1.30;;;8.60;80.20;;;;;;5092187;28;20044;-38
2021/01/28 00:16:55;;;;;;;1.23;1.13;;;8.60;80.20;;;;;;5096157;28;20109;-37
2021/01/28 00:19:21;;;;;;;1.58;1.48;;;8.60;80.20;;;;;;5096097;28;20043;-37
2021/01/28 00:21:47;;;;;;;1.25;1.13;;;8.60;80.30;;;;;;5095879;28;20070;-37
2021/01/28 00:24:12;;;;;;;2.15;1.30;;;8.60;80.10;;;;;;5096019;28;20518;-37
2021/01/28 00:26:38;;;;;;;2.03;1.65;;;8.60;80.20;;;;;;5095104;28;20062;-36
2021/01/28 00:29:04;;;;;;;1.20;1.10;;;8.60;80.10;;;;;;5095857;28;20055;-38
2021/01/28 00:31:30;;;;;;;2.15;1.30;;;8.60;80.20;;;;;;5094353;28;20044;-37
2021/01/28 00:33:56;;;;;;;1.85;1.63;;;8.60;80.20;;;;;;5095650;28;20064;-38
2021/01/28 00:36:23;;;;;;;1.60;1.38;;;8.60;80.10;;;;;;5095408;28;20044;-38
2021/01/28 00:38:48;;;;;;;1.25;1.10;;;8.60;80.20;;;;;;5095719;28;20093;-37
2021/01/28 00:41:14;;;;;;;1.67;1.30;;;8.60;80.20;;;;;;5095950;28;20457;-37
2021/01/28 00:43:40;;;;;;;2.42;1.13;;;8.60;80.10;;;;;;5095319;28;20131;-36
2021/01/28 00:46:06;;;;;;;1.92;1.35;;;8.60;80.10;;;;;;5095626;28;20131;-38
2021/01/28 00:48:33;;;;;;;1.95;1.13;;;8.60;80.10;;;;;;5095239;28;20040;-37
2021/01/28 00:51:01;;;;;;;3.28;1.40;;;8.60;80.10;;;;;;5095771;28;20048;-38
2021/01/28 00:53:26;;;;;;;1.20;1.10;;;8.60;80.10;;;;;;5094795;28;20087;-36
2021/01/28 00:55:52;;;;;;;2.17;1.30;;;8.60;80.10;;;;;;5095381;28;20484;-38
2021/01/28 00:58:21;;;;;;;1.95;1.40;;;8.60;80.10;;;;;;5094920;28;20089;-38
2021/01/28 01:00:48;;;;;;;2.22;1.23;;;8.60;80.10;;;;;;5095147;28;20507;-37
2021/01/28 01:03:16;;;;;;;1.55;1.38;;;8.60;80.10;;;;;;5094887;28;20047;-37
2021/01/28 01:05:43;;;;;;;1.60;1.25;;;8.60;80.10;;;;;;5094623;28;20040;-36
2021/01/28 01:08:14;;;;;;;1.45;1.35;;;8.60;80.10;;;;;;5094024;28;20046;-37
2021/01/28 01:10:48;;;;;;;2.92;1.23;;;8.60;80.10;;;;;;5095192;28;20048;-37
2021/01/28 01:13:18;;;;;;;1.75;1.35;;;8.60;80.10;;;;;;5095154;28;20052;-38
2021/01/28 01:15:44;;;;;;;1.10;1.00;;;8.60;80.10;;;;;;5094652;28;20047;-38
2021/01/28 01:18:11;;;;;;;1.30;1.10;;;8.60;80.10;;;;;;5094915;28;20115;-37
2021/01/28 01:20:37;;;;;;;1.52;1.35;;;8.60;80.10;;;;;;5094859;28;20132;-37
2021/01/28 01:23:04;;;;;;;1.83;1.13;;;8.60;80.10;;;;;;5127741;27;20450;-38
2021/01/28 01:25:30;;;;;;;1.70;1.23;;;8.60;80.10;;;;;;5094166;28;20127;-38
2021/01/28 01:27:56;;;;;;;1.10;1.00;;;8.60;80.10;;;;;;5093564;28;20138;-38
2021/01/28 01:30:22;;;;;;;1.52;1.33;;;8.60;80.10;;;;;;5094296;28;20052;-38
2021/01/28 01:32:49;;;;;;;1.67;1.33;;;8.60;80.10;;;;;;5094617;28;20499;-37
2021/01/28 01:35:16;;;;;;;2.88;1.50;;;8.60;80.10;;;;;;5094066;28;20488;-37
2021/01/28 01:37:43;;;;;;;1.50;1.23;;;8.60;80.10;;;;;;5093820;28;20059;-37
2021/01/28 01:40:11;;;;;;;1.10;1.00;;;8.60;80.10;;;;;;5094288;28;20040;-38
2021/01/28 01:42:40;;;;;;;1.58;1.20;;;8.60;80.10;;;;;;5093645;28;20048;-36
2021/01/28 01:45:09;;;;;;;1.23;1.00;;;8.60;80.10;;;;;;5094383;28;20157;-36
2021/01/28 01:47:49;;;;;;;1.40;1.20;;;8.60;80.10;;;;;;5093918;28;20502;-38
2021/01/28 01:50:30;;;;;;;1.80;1.20;;;8.60;80.10;;;;;;5094601;28;20052;-37
2021/01/28 01:52:58;;;;;;;1.20;1.10;;;8.60;80.10;;;;;;5094010;28;20064;-37
2021/01/28 01:55:24;;;;;;;1.30;1.20;;;8.60;80.10;;;;;;5093888;28;20078;-38
2021/01/28 01:57:50;;;;;;;1.58;1.25;;;8.60;80.70;;;;;;5093564;28;20445;-38
2021/01/28 02:00:20;;;;;;;1.02;0.93;;;8.60;80.10;;;;;;5094006;28;20087;-37
2021/01/28 02:02:50;;;;;;;1.02;1.00;;;8.60;80.10;;;;;;5093046;28;20144;-37
2021/01/28 02:05:24;;;;;;;1.20;1.10;;;8.60;80.10;;;;;;5093393;28;20472;-36
2021/01/28 02:07:50;;;;;;;1.92;1.30;;;8.60;80.10;;;;;;5093432;28;20106;-37
2021/01/28 02:10:17;;;;;;;1.38;1.17;;;8.60;80.10;;;;;;5093629;28;20075;-37
2021/01/28 02:12:43;;;;;;;1.10;1.00;;;8.60;80.10;;;;;;5093428;28;20048;-37
2021/01/28 02:15:10;;;;;;;1.17;1.00;;;8.60;80.10;;;;;;5093453;28;20381;-38
2021/01/28 02:17:39;;;;;;;1.23;1.13;;;8.60;80.10;;;;;;5094037;28;20056;-38
2021/01/28 02:20:33;;;;;;;1.17;1.08;;;8.60;80.10;;;;;;5093192;28;20089;-37
2021/01/28 02:23:10;;;;;;;1.15;1.05;;;8.60;80.00;;;;;;5093658;28;20047;-38
2021/01/28 02:25:38;;;;;;;1.00;0.90;;;8.60;80.10;;;;;;5093274;28;20456;-38
2021/01/28 02:28:10;;;;;;;2.25;1.20;;;8.60;80.10;;;;;;5093578;28;20117;-38
2021/01/28 02:30:38;;;;;;;1.15;0.95;;;8.60;80.00;;;;;;5092950;28;20047;-37
2021/01/28 02:33:09;;;;;;;2.08;1.27;;;8.60;80.00;;;;;;5093458;28;20059;-36
2021/01/28 02:35:36;;;;;;;1.70;1.30;;;8.60;80.10;;;;;;5089887;28;20082;-37
2021/01/28 02:38:06;;;;;;;1.77;1.10;;;8.60;80.10;;;;;;5093055;28;20533;-37
2021/01/28 02:40:33;;;;;;;1.40;1.10;;;8.50;80.00;;;;;;5092823;28;20114;-37
2021/01/28 02:42:59;;;;;;;1.00;0.90;;;8.60;80.10;;;;;;5093949;28;20079;-39
2021/01/28 02:45:29;;;;;;;1.15;1.00;;;8.60;80.00;;;;;;5093648;28;20075;-38
2021/01/28 02:47:57;;;;;;;1.33;1.20;;;8.60;80.00;;;;;;5092590;28;20048;-38
2021/01/28 02:50:23;;;;;;;1.17;1.10;;;8.60;80.10;;;;;;5093000;28;20044;-38
2021/01/28 02:52:53;;;;;;;1.50;1.10;;;8.60;80.10;;;;;;5092906;28;20056;-38
2021/01/28 02:55:20;;;;;;;1.00;0.95;;;8.60;80.10;;;;;;5093132;28;20047;-37
2021/01/28 02:57:45;;;;;;;1.05;0.98;;;8.60;80.10;;;;;;5093325;28;20439;-38
2021/01/28 03:00:14;;;;;;;2.85;1.38;;;8.60;80.00;;;;;;5092697;28;20145;-37
2021/01/28 03:02:40;;;;;;;1.55;1.40;;;8.60;80.00;;;;;;5092430;28;20055;-36
2021/01/28 03:05:07;;;;;;;1.40;1.10;;;8.60;80.00;;;;;;5092587;28;20044;-37
2021/01/28 03:07:32;;;;;;;1.35;1.08;;;8.60;80.10;;;;;;5092760;28;20051;-39
2021/01/28 03:09:58;;;;;;;1.20;1.10;;;8.60;80.10;;;;;;5092455;28;20043;-37
2021/01/28 03:12:24;;;;;;;1.30;1.13;;;8.60;80.00;;;;;;5092296;28;20052;-37
2021/01/28 03:14:50;;;;;;;1.70;1.10;;;8.60;80.00;;;;;;5092572;28;20054;-37
2021/01/28 03:17:16;;;;;;;1.48;1.20;;;8.60;80.00;;;;;;5092627;28;20060;-36
2021/01/28 03:19:42;;;;;;;2.28;1.10;;;8.60;80.00;;;;;;5072990;28;20451;-37
2021/01/28 03:22:07;;;;;;;1.40;1.10;;;8.60;80.00;;;;;;5092457;28;20047;-37
2021/01/28 03:24:33;;;;;;;1.05;0.88;;;8.60;80.00;;;;;;5092479;28;20044;-37
2021/01/28 03:26:59;;;;;;;1.13;1.02;;;8.60;80.00;;;;;;5091739;28;20403;-38
2021/01/28 03:29:25;;;;;;;1.48;1.20;;;8.60;80.00;;;;;;5092358;28;20055;-37
2021/01/28 03:31:51;;;;;;;1.40;0.90;;;8.50;80.00;;;;;;5092132;28;20400;-38
2021/01/28 03:34:17;;;;;;;1.45;1.25;;;8.60;80.00;;;;;;5092098;28;20123;-37
2021/01/28 03:36:43;;;;;;;1.67;1.20;;;8.60;80.00;;;;;;5092372;28;20083;-38
2021/01/28 03:39:09;;;;;;;0.90;0.90;;;8.60;80.10;;;;;;5092054;28;20051;-37
2021/01/28 03:41:35;;;;;;;0.77;0.77;;;8.60;80.00;;;;;;5091990;28;20408;-35
2021/01/28 03:44:00;;;;;;;1.00;0.82;;;8.60;80.00;;;;;;5092530;28;20101;-37
2021/01/28 03:46:27;;;;;;;1.63;1.42;;;8.50;80.00;;;;;;5091657;28;20408;-37
2021/01/28 03:48:53;;;;;;;1.13;1.05;;;8.60;80.00;;;;;;5091693;28;20070;-37
2021/01/28 03:51:19;;;;;;;1.10;1.02;;;8.60;80.00;;;;;;5091442;28;20460;-37
2021/01/28 03:53:45;;;;;;;1.48;1.10;;;8.60;80.00;;;;;;5091921;28;20553;-37
2021/01/28 03:56:10;;;;;;;1.00;0.90;;;8.60;80.00;;;;;;5091781;28;20127;-37
2021/01/28 03:58:36;;;;;;;1.40;1.10;;;8.50;80.00;;;;;;5091805;28;20052;-37
2021/01/28 04:01:03;;;;;;;1.50;1.33;;;8.60;80.00;;;;;;5092025;28;20131;-37
2021/01/28 04:03:29;;;;;;;2.50;1.05;;;8.60;80.00;;;;;;5091929;28;20051;-37
2021/01/28 04:05:55;;;;;;;1.20;1.10;;;8.50;80.20;;;;;;5091421;28;20404;-37
2021/01/28 04:08:21;;;;;;;1.58;1.10;;;8.60;80.00;;;;;;5091954;28;20044;-37
2021/01/28 04:10:47;;;;;;;1.30;1.13;;;8.50;79.90;;;;;;5092006;28;20051;-37
2021/01/28 04:13:13;;;;;;;2.20;1.38;;;8.60;80.00;;;;;;5091357;28;20052;-37
2021/01/28 04:15:38;;;;;;;1.42;1.20;;;8.60;80.00;;;;;;5091520;28;20048;-38
2021/01/28 04:18:04;;;;;;;1.10;1.00;;;8.60;80.10;;;;;;5091848;28;20074;-38
2021/01/28 04:20:33;;;;;;;1.45;1.27;;;8.60;80.00;;;;;;5090824;28;20131;-37
2021/01/28 04:22:59;;;;;;;1.50;1.40;;;8.50;80.00;;;;;;5091687;28;20474;-36
2021/01/28 04:25:25;;;;;;;1.52;1.38;;;8.60;80.00;;;;;;5091832;28;20119;-37
2021/01/28 04:27:52;;;;;;;1.20;1.10;;;8.50;80.00;;;;;;5091811;28;20053;-38
2021/01/28 04:30:25;;;;;;;1.35;1.20;;;8.50;80.00;;;;;;5091457;28;20457;-36
2021/01/28 04:32:52;;;;;;;1.40;1.20;;;8.60;80.00;;;;;;5091763;28;20509;-37
2021/01/28 04:35:17;;;;;;;1.73;1.10;;;8.60;80.00;;;;;;5091629;28;20067;-37
2021/01/28 04:37:43;;;;;;;2.42;1.30;;;8.50;79.90;;;;;;5091903;28;20105;-37
2021/01/28 04:40:36;;;;;;;1.52;1.30;;;8.50;80.00;;;;;;5091757;28;20082;-38
2021/01/28 04:43:30;;;;;;;1.63;1.23;;;8.60;80.00;;;;;;5090476;28;20071;-38
2021/01/28 04:45:59;;;;;;;2.03;1.52;;;8.60;80.00;;;;;;5090979;28;20400;-38
2021/01/28 04:48:27;;;;;;;1.55;1.40;;;8.50;80.00;;;;;;5092139;28;20043;-38
2021/01/28 04:50:56;;;;;;;2.38;1.80;;;8.50;80.00;;;;;;5091766;28;20070;-37
2021/01/28 04:53:40;;;;;;;2.67;1.70;;;8.50;80.00;;;;;;5091405;28;20040;-37
2021/01/28 04:56:15;;;;;;;3.05;1.67;;;8.60;80.70;;;;;;5091358;28;20105;-38
2021/01/28 04:58:40;;;;;;;1.92;1.70;;;8.60;80.70;;;;;;5091641;28;20385;-37
2021/01/28 05:01:06;;;;;;;3.10;2.00;;;8.60;80.10;;;;;;5091618;28;20109;-37
2021/01/28 05:03:36;;;;;;;2.47;1.80;;;8.60;80.00;;;;;;5094981;28;20050;-37
2021/01/28 05:06:05;;;;;;;2.70;1.83;;;8.50;80.00;;;;;;5094850;28;20515;-37
2021/01/28 05:08:31;;;;;;;2.60;1.77;;;8.60;80.00;;;;;;5094736;28;20079;-37
2021/01/28 05:10:59;;;;;;;2.15;1.75;;;8.60;80.00;;;;;;5095379;28;20067;-37
2021/01/28 05:13:36;;;;;;;2.50;1.88;;;8.60;80.00;;;;;;5094605;28;20059;-38
2021/01/28 05:16:31;;;;;;;2.00;1.77;;;8.60;80.10;;;;;;5093369;28;20074;-37
2021/01/28 05:19:01;;;;;;;1.98;1.77;;;8.60;80.00;;;;;;5095357;28;20134;-38
2021/01/28 05:21:31;;;;;;;2.42;2.05;;;8.50;80.00;;;;;;5094667;28;20101;-37
2021/01/28 05:24:08;;;;;;;2.25;1.80;;;8.50;80.00;;;;;;5095197;28;20044;-37
2021/01/28 05:26:40;;;;;;;2.40;1.85;;;8.50;80.00;;;;;;5094211;28;20097;-37
2021/01/28 05:29:20;;;;;;;2.50;1.95;;;8.60;80.00;;;;;;5094444;28;20480;-36
2021/01/28 05:31:46;;;;;;;2.17;1.98;;;8.60;80.00;;;;;;5094488;28;20489;-37
2021/01/28 05:34:18;;;;;;;1.92;1.70;;;8.50;80.00;;;;;;5094631;28;20047;-37
2021/01/28 05:36:58;;;;;;;1.77;1.48;;;8.50;80.00;;;;;;5094099;28;20043;-38
2021/01/28 05:39:32;;;;;;;2.28;1.98;;;8.50;80.00;;;;;;5094125;28;20040;-36
2021/01/28 05:42:12;;;;;;;3.35;2.05;;;8.50;80.00;;;;;;5094242;28;20162;-37
2021/01/28 05:44:38;;;;;;;2.38;1.75;;;8.50;79.90;;;;;;5093964;28;20203;-37
2021/01/28 05:47:33;;;;;;;1.92;1.70;;;8.50;80.00;;;;;;5094205;28;20055;-36
2021/01/28 05:50:15;;;;;;;2.22;2.00;;;8.50;80.00;;;;;;5077334;28;20056;-38
2021/01/28 05:52:41;;;;;;;2.10;1.75;;;8.50;80.00;;;;;;5094132;28;20051;-37
2021/01/28 05:55:12;;;;;;;2.70;2.10;;;8.50;80.00;;;;;;5093985;28;20040;-37
2021/01/28 05:58:01;;;;;;;2.08;1.70;;;8.50;80.00;;;;;;5093879;28;20044;-38
2021/01/28 06:00:49;;;;;;;3.30;1.90;;;8.60;80.00;;;;;;5073777;28;20404;-38
2021/01/28 06:03:52;;;;;;;2.35;1.98;;;8.50;80.00;;;;;;5079839;28;20104;-38
2021/01/28 06:06:41;;;;;;;2.38;1.77;;;8.50;80.00;;;;;;5093817;28;20048;-39
2021/01/28 06:09:19;;;;;;;2.67;2.00;;;8.50;80.00;;;;;;5093749;28;20060;-37
2021/01/28 06:12:05;;;;;;;2.80;2.03;;;8.50;80.00;;;;;;5093674;28;20048;-38
2021/01/28 06:15:01;;;;;;;3.00;2.25;;;8.50;80.00;;;;;;5124727;27;20507;-38
2021/01/28 06:18:09;;;;;;;2.30;1.95;;;8.50;80.00;;;;;;5093762;28;20101;-38
2021/01/28 06:21:03;;;;;;;3.03;2.00;;;8.50;80.00;;;;;;5089220;28;20052;-38
2021/01/28 06:23:37;;;;;;;2.22;1.77;;;8.50;80.00;;;;;;5091202;28;20077;-38
2021/01/28 06:26:14;;;;;;;2.20;1.65;;;8.50;80.00;;;;;;5094067;28;20082;-38
2021/01/28 06:29:12;;;;;;;2.33;1.92;;;8.50;80.00;;;;;;5093085;28;20094;-38
2021/01/28 06:31:58;;;;;;;2.80;1.88;;;8.50;80.00;;;;;;5093091;28;20134;-38
2021/01/28 06:34:55;;;;;;;2.85;1.95;;;8.50;80.00;;;;;;5093660;28;20048;-38
2021/01/28 06:37:37;;;;;;;2.88;1.92;;;8.50;80.00;;;;;;5093799;28;20054;-38
2021/01/28 06:40:09;;;;;;;3.28;2.10;;;8.50;80.00;;;;;;5093393;28;20048;-38
2021/01/28 06:42:45;;;;;;;2.70;2.03;;;8.50;80.00;;;;;;5076065;28;20124;-38
2021/01/28 06:45:15;;;;;;;;;;;8.50;80.00;;;;;;5093691;28;20044;-37
2021/01/28 06:47:58;;;;;;;2.42;1.88;;;8.50;80.00;;;;;;5093395;28;19920;-39
2021/01/28 06:50:37;;;;;;;2.28;1.95;;;8.50;80.00;;;;;;5093900;28;20036;-38
2021/01/28 06:53:21;;;;;;;2.35;1.95;;;8.50;80.00;;;;;;5092913;28;20044;-38
2021/01/28 06:55:56;;;;;;;2.53;1.95;;;8.50;80.00;;;;;;5093560;28;20059;-38
2021/01/28 06:58:39;;;;;;;2.35;1.90;;;8.50;80.00;;;;;;5093335;28;20048;-38
2021/01/28 07:01:12;;;;;;;2.42;1.75;;;8.50;80.00;;;;;;5092416;28;20044;-37
2021/01/28 07:04:02;;;;;;;2.80;1.92;;;8.50;80.00;;;;;;5093086;28;20055;-38
2021/01/28 07:06:53;;;;;;;2.33;1.90;;;8.50;80.00;;;;;;5092523;28;20047;-38
2021/01/28 07:09:44;;;;;;;2.70;1.90;;;8.50;80.00;;;;;;5092775;28;20051;-38
2021/01/28 07:12:13;;;;;;;2.75;2.00;;;8.50;80.00;;;;;;5092615;28;20036;-38
2021/01/28 07:14:39;;;;;;;2.25;1.70;;;8.50;80.10;;;;;;5092680;28;20135;-38
2021/01/28 07:17:14;;;;;;;3.55;2.10;;;8.50;80.10;;;;;;5092431;28;20051;-38
2021/01/28 07:19:43;;;;;;;2.50;1.95;;;8.50;80.00;;;;;;5092216;28;20123;-37
2021/01/28 07:22:39;;;;;;;2.35;1.92;;;8.50;80.10;;;;;;5092979;28;20051;-38
2021/01/28 07:25:23;;;;;;;;;;;8.50;80.00;;;;;;5092444;28;20109;-37
2021/01/28 07:28:18;;;;;;;2.53;1.60;;;8.50;80.10;;;;;;5091883;28;20390;-37
2021/01/28 07:30:52;;;;;;;3.67;1.70;;;8.50;80.70;;;;;;5089373;28;20051;-39
2021/01/28 07:33:24;;;;;;;2.13;1.50;;;8.50;80.10;;;;;;5091010;28;20047;-38
2021/01/28 07:36:01;;;;;;;2.00;1.77;;;8.50;80.00;;;;;;5091221;28;20040;-38
2021/01/28 07:38:27;;;;;;;2.92;1.92;;;8.50;80.10;;;;;;5091426;28;20055;-37
2021/01/28 07:41:09;;;;;;;2.08;1.80;;;8.50;80.00;;;;;;5091988;28;20058;-39
2021/01/28 07:43:38;;;;;;;1.95;1.73;;;8.50;80.10;;;;;;5091712;28;20048;-37
2021/01/28 07:46:37;;;;;;;2.10;1.67;;;8.50;80.10;;;;;;5092764;28;20055;-38
2021/01/28 07:49:14;;;;;;;2.35;1.55;;;8.50;80.10;;;;;;5091977;28;20130;-38
2021/01/28 07:51:46;;;;;;;2.00;1.60;;;8.50;80.10;;;;;;5092020;28;20052;-35
2021/01/28 07:54:24;;;;;;;2.80;1.90;;;8.50;80.00;;;;;;5091720;28;20147;-38
2021/01/28 07:56:51;;;;;;;2.50;1.88;;;8.50;80.00;;;;;;5091668;28;20395;-38
2021/01/28 07:59:32;;;;;;;2.63;1.83;;;8.50;80.10;;;;;;5092017;28;20121;-39
2021/01/28 08:02:09;;;;;;;2.10;1.63;;;8.50;80.00;;;;;;5091903;28;20131;-38
2021/01/28 08:04:47;;;;;;;2.50;1.50;;;8.40;80.00;;;;;;5092065;28;20048;-38
2021/01/28 08:07:26;;;;;;;2.42;1.90;;;8.50;80.70;;;;;;5092182;28;20074;-39
2021/01/28 08:09:55;;;;;;;1.95;1.50;;;8.50;80.10;;;;;;5092349;28;20161;-38
2021/01/28 08:12:24;;;;;;;2.00;1.80;;;8.50;80.00;;;;;;5092228;28;20075;-39
2021/01/28 08:14:52;;;;;;;2.05;1.85;;;8.50;80.00;;;;;;5092098;28;20127;-39
2021/01/28 08:17:26;;;;;;;2.25;1.70;;;8.50;80.00;;;;;;5091326;28;20492;-39
2021/01/28 08:20:24;;;;;;;2.20;1.65;;;8.50;80.00;;;;;;5092285;28;20088;-37
2021/01/28 08:22:53;;;;;;;2.33;1.65;;;8.50;80.00;;;;;;5092258;28;20048;-38
2021/01/28 08:25:20;;;;;;;1.70;1.52;;;8.50;80.00;;;;;;5092190;28;20048;-37
2021/01/28 08:27:45;;;;;;;4.07;2.10;;;8.50;80.00;;;;;;5091600;28;20488;-36
2021/01/28 08:30:18;;;;;;;4.05;1.85;;;8.60;80.00;;;;;;5091713;28;20068;-38
2021/01/28 08:32:46;;;;;;;2.15;1.70;;;8.50;80.00;;;;;;5091987;28;20071;-37
2021/01/28 08:35:30;;;;;;;2.75;1.80;;;8.50;80.00;;;;;;5091870;28;20503;-38
2021/01/28 08:38:21;;;;;;;1.83;1.60;;;8.50;79.90;;;;;;5095642;28;20411;-37
2021/01/28 08:40:58;;;;;;;2.40;1.60;;;8.50;80.00;;;;;;5095888;28;20051;-36
2021/01/28 08:43:23;;;;;;;2.13;1.70;;;8.50;79.90;;;;;;5095883;28;20048;-38
2021/01/28 08:46:05;;;;;;;1.98;1.60;;;8.50;80.00;;;;;;5095231;28;20052;-38
2021/01/28 08:48:31;;;;;;;2.20;1.95;;;8.50;79.90;;;;;;5075518;28;20053;-38
2021/01/28 08:51:23;;;;;;;2.05;1.67;;;8.50;79.90;;;;;;5082369;28;20052;-36
2021/01/28 08:54:01;;;;;;;2.67;1.70;;;8.50;80.00;;;;;;5095963;28;20102;-36
2021/01/28 08:56:33;;;;;;;2.47;1.77;;;8.50;79.90;;;;;;5095687;28;20048;-37
2021/01/28 08:59:02;;;;;;;2.42;1.77;;;8.50;80.00;;;;;;5095399;28;20115;-37
2021/01/28 09:01:28;;;;;;;1.67;1.40;;;8.50;79.90;;;;;;5095420;28;20074;-37
2021/01/28 09:04:03;;;;;;;1.83;1.48;;;8.50;79.90;;;;;;5095375;28;20044;-38
2021/01/28 09:06:37;;;;;;;2.08;1.83;;;8.50;79.90;;;;;;5095534;28;20048;-38
2021/01/28 09:09:12;;;;;;;2.05;1.60;;;8.50;80.00;;;;;;5095460;28;20120;-37
2021/01/28 09:11:38;;;;;;;3.10;1.90;;;8.50;79.90;;;;;;5095117;28;20126;-35
2021/01/28 09:14:05;;;;;;;2.60;1.90;;;8.50;80.00;;;;;;5095155;28;20464;-37
2021/01/28 09:16:33;;;;;;;3.22;2.10;;;8.50;79.90;;;;;;5095126;28;20501;-38
2021/01/28 09:19:16;;;;;;;3.35;1.85;;;8.50;80.00;;;;;;5094594;28;20059;-35
2021/01/28 09:21:44;;;;;;;1.90;1.70;;;8.50;79.90;;;;;;5094918;28;20127;-38
2021/01/28 09:24:20;;;;;;;2.85;1.60;;;8.50;79.90;;;;;;5094867;28;20047;-36
2021/01/28 09:26:47;;;;;;;1.92;1.70;;;8.50;79.90;;;;;;5094514;28;20514;-38
2021/01/28 09:29:22;;;;;;;2.67;1.60;;;8.50;79.90;;;;;;5094257;28;20055;-39
2021/01/28 09:31:50;;;;;;;2.75;1.90;;;8.50;79.90;;;;;;5094927;28;20040;-39
2021/01/28 09:34:26;;;;;;;1.95;1.75;;;8.50;80.60;;;;;;5094533;28;20059;-35
2021/01/28 09:36:58;;;;;;;2.08;1.83;;;8.50;79.90;;;;;;5094190;28;20098;-38
2021/01/28 09:39:40;;;;;;;2.78;1.92;;;8.50;79.90;;;;;;5090217;28;20063;-36
2021/01/28 09:42:28;;;;;;;2.10;1.80;;;8.50;79.90;;;;;;5089699;28;20052;-36
2021/01/28 09:44:55;;;;;;;2.33;1.50;;;8.50;79.90;;;;;;5093506;28;20074;-37
2021/01/28 09:47:28;;;;;;;2.10;1.73;;;8.50;79.90;;;;;;5092453;28;20052;-36
2021/01/28 09:50:04;;;;;;;2.30;2.00;;;8.50;79.90;;;;;;5093378;28;20048;-34
2021/01/28 09:52:34;;;;;;;;;;;8.50;79.90;;;;;;5094095;28;20109;-36
2021/01/28 09:55:04;;;;;;;1.92;1.40;;;8.50;79.90;;;;;;5093741;28;19973;-37
2021/01/28 09:57:35;;;;;;;2.63;1.83;;;8.50;79.90;;;;;;5093041;28;20135;-36
2021/01/28 10:00:03;;;;;;;2.50;1.77;;;8.50;80.50;;;;;;5093803;28;20490;-35
2021/01/28 10:02:36;;;;;;;2.63;1.80;;;8.50;79.80;;;;;;5093533;28;20048;-38
2021/01/28 10:05:03;;;;;;;1.98;1.55;;;8.50;79.80;;;;;;5093264;28;20048;-37
2021/01/28 10:07:29;;;;;;;3.08;1.90;;;8.50;79.80;;;;;;5092779;28;20118;-35
2021/01/28 10:09:54;;;;;;;2.25;1.70;;;8.50;79.80;;;;;;5093686;28;20203;-37
2021/01/28 10:12:24;;;;;;;2.90;1.90;;;8.50;79.80;;;;;;5093215;28;20109;-36
2021/01/28 10:14:50;;;;;;;3.65;2.22;;;8.50;79.80;;;;;;5093213;28;20117;-34
2021/01/28 10:17:16;;;;;;;2.42;1.90;;;8.50;79.80;;;;;;5092254;28;20052;-36
2021/01/28 10:19:43;;;;;;;3.20;1.85;;;8.50;79.80;;;;;;5092305;28;20529;-35
2021/01/28 10:22:12;;;;;;;2.22;1.70;;;8.50;79.80;;;;;;5092928;28;20048;-36
2021/01/28 10:24:38;;;;;;;2.40;1.83;;;8.50;79.80;;;;;;5092919;28;20051;-36
2021/01/28 10:27:04;;;;;;;2.05;1.85;;;8.50;79.80;;;;;;5093094;28;20043;-35
2021/01/28 10:29:29;;;;;;;1.65;1.45;;;8.50;79.70;;;;;;5092836;28;20048;-36
2021/01/28 10:31:55;;;;;;;2.80;2.28;;;8.50;79.70;;;;;;5093132;28;20048;-37
2021/01/28 10:34:21;;;;;;;4.05;1.83;;;8.50;79.20;;;;;;5092764;28;20621;-36
2021/01/28 10:36:47;;;;;;;4.20;2.08;;;8.40;79.30;;;;;;5092682;28;20060;-37
2021/01/28 10:39:13;;;;;;;3.50;2.20;;;8.40;79.40;;;;;;5093110;28;20495;-40
2021/01/28 10:41:38;;;;;;;3.28;2.05;;;8.40;79.40;;;;;;5092478;28;20096;-39
2021/01/28 10:44:04;;;;;;;2.95;2.17;;;8.40;79.40;;;;;;5092704;28;20048;-35
2021/01/28 10:46:30;;;;;;;3.03;1.92;;;8.40;79.40;;;;;;5092736;28;20044;-41
2021/01/28 10:48:56;;;;;;;3.53;1.92;;;8.50;79.50;;;;;;5093108;28;20078;-42
2021/01/28 10:51:22;;;;;;;3.30;2.03;;;8.40;79.40;;;;;;5093207;28;20461;-40
2021/01/28 10:53:47;;;;;;;2.83;2.00;;;8.50;79.40;;;;;;5093670;28;20415;-40
2021/01/28 10:56:13;;;;;;;8.25;2.08;;;8.50;79.50;;;;;;5093784;28;20044;-42
2021/01/28 10:58:39;;;;;;;3.22;2.20;;;8.50;78.90;;;;;;5086466;28;20765;-37
2021/01/28 11:01:05;;;;;;;3.53;2.00;;;8.40;78.70;;;;;;5075934;28;20052;-38
2021/01/28 11:03:31;;;;;;;4.47;1.67;;;8.30;78.80;;;;;;5092325;28;20051;-36
2021/01/28 11:05:58;;;;;;;4.50;2.15;;;8.30;78.90;;;;;;5092335;28;20124;-36
2021/01/28 11:08:24;;;;;;;2.78;1.63;;;8.30;78.90;;;;;;5092222;28;20040;-35
2021/01/28 11:10:50;;;;;;;3.83;2.17;;;8.40;79.00;;;;;;5092241;28;20051;-38
2021/01/28 11:13:16;;;;;;;3.58;1.80;;;8.30;78.90;;;;;;5092176;28;20044;-38
2021/01/28 11:15:41;;;;;;;2.60;2.20;;;8.40;79.00;;;;;;5092167;28;20040;-36
2021/01/28 11:18:10;;;;;;;3.70;2.00;;;8.40;79.10;;;;;;5092200;28;20067;-36
2021/01/28 11:20:36;;;;;;;2.17;1.80;;;8.30;79.00;;;;;;5091875;28;20131;-39
2021/01/28 11:23:02;;;;;;;1.98;1.70;;;8.30;79.00;;;;;;5092019;28;20448;-36
2021/01/28 11:25:28;;;;;;;2.90;2.13;;;8.40;79.10;;;;;;5091883;28;20181;-37
2021/01/28 11:27:55;;;;;;;3.72;1.98;;;8.30;79.10;;;;;;5092199;28;20079;-39
2021/01/28 11:30:24;;;;;;;2.63;1.88;;;8.40;79.20;;;;;;5092095;28;20055;-37
2021/01/28 11:32:51;;;;;;;2.60;1.92;;;8.40;79.20;;;;;;5092170;28;20527;-40
2021/01/28 11:35:20;;;;;;;3.58;1.85;;;8.40;79.20;;;;;;5092216;28;20048;-39
2021/01/28 11:37:47;;;;;;;2.47;2.05;;;8.40;79.20;;;;;;5091928;28;20048;-36
2021/01/28 11:40:22;;;;;;;1.95;1.70;;;8.40;79.80;;;;;;5092094;28;20143;-40
2021/01/28 11:42:48;;;;;;;4.18;2.00;;;8.40;79.20;;;;;;5092042;28;20112;-40
2021/01/28 11:45:15;;;;;;;2.10;1.58;;;8.40;79.20;;;;;;5092183;28;20050;-39
2021/01/28 11:47:41;;;;;;;6.25;1.95;;;8.40;79.20;;;;;;5089787;28;20044;-36
2021/01/28 11:50:09;;;;;;;3.80;1.95;;;8.40;79.20;;;;;;5090965;28;20051;-41
2021/01/28 11:52:35;;;;;;;1.75;1.40;;;8.40;79.20;;;;;;5091308;28;20404;-39
2021/01/28 11:55:03;;;;;;;2.90;1.90;;;8.40;79.20;;;;;;5091722;28;20055;-40
2021/01/28 11:57:28;;;;;;;2.40;1.60;;;8.40;79.20;;;;;;5091567;28;20055;-39
2021/01/28 11:59:54;;;;;;;2.50;1.60;;;8.40;79.20;;;;;;5091763;28;20448;-37
2021/01/28 12:02:20;;;;;;;2.40;1.75;;;8.40;79.20;;;;;;5091623;28;20523;-38
2021/01/28 12:04:46;;;;;;;2.42;1.60;;;8.40;79.20;;;;;;5091563;28;20044;-36
2021/01/28 12:07:14;;;;;;;1.67;1.50;;;8.40;79.20;;;;;;5091380;28;20489;-37
2021/01/28 12:09:40;;;;;;;3.08;1.70;;;8.40;79.20;;;;;;5091437;28;20068;-36
2021/01/28 12:12:06;;;;;;;2.92;1.70;;;8.40;79.20;;;;;;5094868;28;20075;-38
2021/01/28 12:14:31;;;;;;;3.00;1.65;;;8.40;79.20;;;;;;5095347;28;20066;-39
2021/01/28 12:16:57;;;;;;;1.60;1.50;;;8.40;79.20;;;;;;5095665;28;20143;-38
2021/01/28 12:19:23;;;;;;;1.80;1.63;;;8.40;79.20;;;;;;5093971;28;20092;-36
2021/01/28 12:21:49;;;;;;;1.80;1.50;;;8.40;79.20;;;;;;5095550;28;20044;-37
2021/01/28 12:24:15;;;;;;;1.98;1.60;;;8.40;79.30;;;;;;5095357;28;20044;-37
2021/01/28 12:26:41;;;;;;;3.20;2.05;;;8.40;79.20;;;;;;5095308;28;20236;-43
2021/01/28 12:29:07;;;;;;;1.52;1.38;;;8.40;79.20;;;;;;5095146;28;20067;-36
2021/01/28 12:31:32;;;;;;;2.22;1.55;;;8.40;79.20;;;;;;5095209;28;20067;-37
2021/01/28 12:33:58;;;;;;;2.10;1.55;;;8.40;79.20;;;;;;5095632;28;20043;-39
2021/01/28 12:36:24;;;;;;;1.98;1.40;;;8.40;79.20;;;;;;5095101;28;20047;-36
2021/01/28 12:38:50;;;;;;;2.05;1.75;;;8.40;79.20;;;;;;5095013;28;20468;-43
2021/01/28 12:41:16;;;;;;;2.67;1.50;;;8.40;79.20;;;;;;5095395;28;20138;-42
2021/01/28 12:43:42;;;;;;;2.47;1.48;;;8.40;79.20;;;;;;5095009;28;20127;-38
2021/01/28 12:46:08;;;;;;;1.75;1.30;;;8.40;79.20;;;;;;5095491;28;20048;-42
2021/01/28 12:48:37;;;;;;;1.73;1.48;;;8.40;79.20;;;;;;5094618;28;20051;-36
2021/01/28 12:51:03;;;;;;;1.88;1.33;;;8.40;79.20;;;;;;5095098;28;20048;-39
2021/01/28 12:53:29;;;;;;;2.17;1.27;;;8.40;79.20;;;;;;5094861;28;20160;-42
2021/01/28 12:55:55;;;;;;;1.88;1.33;;;8.40;79.20;;;;;;5093904;28;20159;-39
2021/01/28 12:58:20;;;;;;;1.98;1.42;;;8.40;79.20;;;;;;5095438;28;20048;-40
2021/01/28 13:00:46;;;;;;;2.40;1.60;;;8.40;79.20;;;;;;5095277;28;20044;-36
2021/01/28 13:03:12;;;;;;;1.67;1.50;;;8.40;79.20;;;;;;5094999;28;20055;-37
2021/01/28 13:05:38;;;;;;;2.53;1.27;;;8.40;79.20;;;;;;5093428;28;20067;-37
2021/01/28 13:08:04;;;;;;;2.35;1.38;;;8.40;79.20;;;;;;5094644;28;20107;-39
2021/01/28 13:10:29;;;;;;;1.50;1.40;;;8.40;79.20;;;;;;5094480;28;20048;-38
2021/01/28 13:12:55;;;;;;;1.90;1.30;;;8.40;79.20;;;;;;5094761;28;20051;-39
2021/01/28 13:15:21;;;;;;;2.30;1.40;;;8.40;79.10;;;;;;5094518;28;20089;-37
2021/01/28 13:17:49;;;;;;;2.10;1.48;;;8.40;79.20;;;;;;5094726;28;20070;-38